createdAt,value
2023-05-19T00:01:33.029Z,95.80
2023-05-19T00:04:05.164Z,95.90
2023-05-19T00:06:33.237Z,96.00
2023-05-19T00:09:09.461Z,96.30
2023-05-19T00:11:39.369Z,96.30
2023-05-19T00:14:09.626Z,96.40
2023-05-19T00:16:38.152Z,96.40
2023-05-19T00:19:10.312Z,96.50
2023-05-19T00:21:39.055Z,96.60
2023-05-19T00:24:07.243Z,96.70
2023-05-19T00:26:34.415Z,96.70
2023-05-19T00:29:01.342Z,96.80
2023-05-19T00:31:28.519Z,96.90
2023-05-19T00:33:55.572Z,96.90
2023-05-19T00:36:22.831Z,97.00
2023-05-19T00:38:51.087Z,97.00
2023-05-19T00:41:18.321Z,97.10
2023-05-19T00:43:45.670Z,97.20
2023-05-19T00:46:12.792Z,97.30
2023-05-19T00:48:39.735Z,97.20
2023-05-19T00:51:07.121Z,97.30
2023-05-19T00:53:35.499Z,97.40
2023-05-19T00:56:03.534Z,97.40
2023-05-19T00:58:33.193Z,97.50
2023-05-19T01:01:07.317Z,97.60
2023-05-19T01:03:36.273Z,97.60
2023-05-19T01:06:07.472Z,97.70
2023-05-19T01:08:37.119Z,97.60
2023-05-19T01:11:07.141Z,97.60
2023-05-19T01:13:36.276Z,97.60
2023-05-19T01:16:17.615Z,97.70
2023-05-19T01:19:01.641Z,97.70
2023-05-19T01:21:52.283Z,97.70
2023-05-19T01:24:58.768Z,97.60
2023-05-19T01:27:56.281Z,97.70
2023-05-19T01:30:37.706Z,98.10
2023-05-19T01:33:11.022Z,98.10
2023-05-19T01:35:40.440Z,98.20
2023-05-19T01:38:11.458Z,98.20
2023-05-19T01:40:41.647Z,98.30
2023-05-19T01:43:17.164Z,98.30
2023-05-19T01:45:45.638Z,98.40
2023-05-19T01:48:14.518Z,98.50
2023-05-19T01:50:42.508Z,98.60
2023-05-19T01:53:09.848Z,98.70
2023-05-19T01:55:49.577Z,98.70
2023-05-19T01:58:46.956Z,98.80
2023-05-19T02:01:39.576Z,98.90
2023-05-19T02:04:39.430Z,98.90
2023-05-19T02:07:41.603Z,98.90
2023-05-19T02:10:31.102Z,98.90
2023-05-19T02:13:04.477Z,99.00
2023-05-19T02:15:41.995Z,99.10
2023-05-19T02:18:12.443Z,99.10
2023-05-19T02:20:40.178Z,99.20
2023-05-19T02:23:07.389Z,99.20
2023-05-19T02:25:34.504Z,99.30
2023-05-19T02:28:01.480Z,99.50
2023-05-19T02:30:28.352Z,99.50
2023-05-19T02:32:55.449Z,99.50
2023-05-19T02:35:22.475Z,99.60
2023-05-19T02:37:49.420Z,99.60
2023-05-19T02:40:16.492Z,99.70
2023-05-19T02:42:43.498Z,99.60
2023-05-19T02:45:11.006Z,99.70
2023-05-19T02:47:38.408Z,99.80
2023-05-19T02:50:06.694Z,99.80
2023-05-19T02:52:33.920Z,99.80
2023-05-19T02:55:00.991Z,99.80
2023-05-19T02:57:31.660Z,99.80
2023-05-19T02:59:58.690Z,99.90
2023-05-19T03:02:25.756Z,99.90
2023-05-19T03:04:53.210Z,99.90
2023-05-19T03:07:25.389Z,99.90
2023-05-19T03:09:53.014Z,99.90
2023-05-19T03:12:20.004Z,99.90
2023-05-19T03:14:47.671Z,99.90
2023-05-19T03:17:14.720Z,99.90
2023-05-19T03:19:42.195Z,99.90
2023-05-19T03:22:09.111Z,99.90
2023-05-19T03:24:36.811Z,99.90
2023-05-19T03:27:05.865Z,99.90
2023-05-19T03:29:32.800Z,99.90
2023-05-19T03:31:59.953Z,99.90
2023-05-19T03:34:26.968Z,99.90
2023-05-19T03:36:53.921Z,99.90
2023-05-19T03:39:20.860Z,99.90
2023-05-19T03:41:47.875Z,99.90
2023-05-19T03:44:14.774Z,99.90
2023-05-19T03:46:41.715Z,99.90
2023-05-19T03:49:08.693Z,99.90
2023-05-19T03:51:36.635Z,99.90
2023-05-19T03:54:04.568Z,99.90
2023-05-19T03:56:32.784Z,99.90
2023-05-19T03:59:00.288Z,99.90
2023-05-19T04:01:27.227Z,99.90
2023-05-19T04:03:54.103Z,99.90
2023-05-19T04:06:21.219Z,99.90
2023-05-19T04:08:48.123Z,99.90
2023-05-19T04:11:15.099Z,99.90
2023-05-19T04:13:42.086Z,99.90
2023-05-19T04:16:09.200Z,99.90
2023-05-19T04:18:36.164Z,99.90
2023-05-19T04:21:03.146Z,99.90
2023-05-19T04:23:30.092Z,99.90
2023-05-19T04:25:58.969Z,99.90
2023-05-19T04:28:25.898Z,99.90
2023-05-19T04:30:52.968Z,99.90
2023-05-19T04:33:20.168Z,99.90
2023-05-19T04:35:47.182Z,99.90
2023-05-19T04:38:18.645Z,99.90
2023-05-19T04:40:45.651Z,99.90
2023-05-19T04:43:12.600Z,99.90
2023-05-19T04:45:42.492Z,99.90
2023-05-19T04:48:09.512Z,99.90
2023-05-19T04:50:38.572Z,99.90
2023-05-19T04:53:05.526Z,99.90
2023-05-19T04:55:32.953Z,99.90
2023-05-19T04:57:59.931Z,99.90
2023-05-19T05:00:27.062Z,99.90
2023-05-19T05:02:54.009Z,99.90
2023-05-19T05:05:21.150Z,99.90
2023-05-19T05:07:48.093Z,99.90
2023-05-19T05:10:15.288Z,99.90
2023-05-19T05:12:42.622Z,99.90
2023-05-19T05:15:10.492Z,99.90
2023-05-19T05:17:37.879Z,99.90
2023-05-19T05:20:06.677Z,99.90
2023-05-19T05:22:34.286Z,99.90
2023-05-19T05:25:03.041Z,99.90
2023-05-19T05:27:30.665Z,99.90
2023-05-19T05:29:59.211Z,99.90
2023-05-19T05:32:26.348Z,99.90
2023-05-19T05:34:53.586Z,99.70
2023-05-19T05:37:20.570Z,99.50
2023-05-19T05:39:47.468Z,98.90
2023-05-19T05:42:14.451Z,98.30
2023-05-19T05:44:41.367Z,97.70
2023-05-19T05:47:08.977Z,97.20
2023-05-19T05:49:38.128Z,96.70
2023-05-19T05:52:06.914Z,96.40
2023-05-19T05:54:34.656Z,95.90
2023-05-19T05:57:02.711Z,95.50
2023-05-19T05:59:29.639Z,94.90
2023-05-19T06:01:56.617Z,94.30
2023-05-19T06:04:23.548Z,92.90
2023-05-19T06:06:52.591Z,92.60
2023-05-19T06:09:19.517Z,91.70
2023-05-19T06:11:46.461Z,91.80
2023-05-19T06:14:13.409Z,91.70
2023-05-19T06:16:40.328Z,91.40
2023-05-19T06:19:07.464Z,91.00
2023-05-19T06:21:34.496Z,90.70
2023-05-19T06:24:01.398Z,89.70
2023-05-19T06:26:28.367Z,82.30
2023-05-19T06:28:55.292Z,83.70
2023-05-19T06:31:22.988Z,85.90
2023-05-19T06:33:49.946Z,79.70
2023-05-19T06:36:16.892Z,79.50
2023-05-19T06:38:43.921Z,76.70
2023-05-19T06:41:10.977Z,77.20
2023-05-19T06:43:38.204Z,79.80
2023-05-19T06:46:05.309Z,75.40
2023-05-19T06:48:32.308Z,79.10
2023-05-19T06:50:59.268Z,77.60
2023-05-19T06:53:26.375Z,74.10
2023-05-19T06:55:59.306Z,72.90
2023-05-19T06:58:27.961Z,72.80
2023-05-19T07:00:54.908Z,70.80
2023-05-19T07:03:21.912Z,72.10
2023-05-19T07:05:49.021Z,72.50
2023-05-19T07:08:16.412Z,72.40
2023-05-19T07:10:43.532Z,72.20
2023-05-19T07:13:10.516Z,67.60
2023-05-19T07:15:37.524Z,63.80
2023-05-19T07:18:04.782Z,64.00
2023-05-19T07:20:31.957Z,63.80
2023-05-19T07:22:59.264Z,60.80
2023-05-19T07:25:28.693Z,62.90
2023-05-19T07:27:55.716Z,60.00
2023-05-19T07:30:22.759Z,61.30
2023-05-19T07:32:49.659Z,59.40
2023-05-19T07:35:16.677Z,59.60
2023-05-19T07:37:43.735Z,58.40
2023-05-19T07:40:10.979Z,59.50
2023-05-19T07:42:37.829Z,58.40
2023-05-19T07:45:05.323Z,57.10
2023-05-19T07:47:32.330Z,56.70
2023-05-19T07:49:59.245Z,52.80
2023-05-19T07:52:26.772Z,52.10
2023-05-19T07:54:53.623Z,54.80
2023-05-19T07:57:20.666Z,55.30
2023-05-19T07:59:47.618Z,53.60
2023-05-19T08:02:14.623Z,54.60
2023-05-19T08:04:41.615Z,55.50
2023-05-19T08:07:08.774Z,54.10
2023-05-19T08:09:35.849Z,54.30
2023-05-19T08:12:04.922Z,54.30
2023-05-19T08:14:33.371Z,52.40
2023-05-19T08:17:00.702Z,51.10
2023-05-19T08:19:27.760Z,51.70
2023-05-19T08:21:55.816Z,50.10
2023-05-19T08:24:22.794Z,50.90
2023-05-19T08:26:49.688Z,52.40
2023-05-19T08:29:16.767Z,51.60
2023-05-19T08:31:43.793Z,49.00
2023-05-19T08:34:10.997Z,48.50
2023-05-19T08:36:37.959Z,47.40
2023-05-19T08:39:05.182Z,48.50
2023-05-19T08:41:32.589Z,50.70
2023-05-19T08:43:59.851Z,51.60
2023-05-19T08:46:29.131Z,49.60
2023-05-19T08:49:04.629Z,49.60
2023-05-19T08:51:47.220Z,51.20
2023-05-19T08:54:18.637Z,50.60
2023-05-19T08:56:46.543Z,51.30
2023-05-19T08:59:18.245Z,53.60
2023-05-19T09:01:46.694Z,53.80
2023-05-19T09:04:14.355Z,53.70
2023-05-19T09:06:42.533Z,53.30
2023-05-19T09:09:09.618Z,53.60
2023-05-19T09:11:37.773Z,53.40
2023-05-19T09:14:05.799Z,52.40
2023-05-19T09:16:34.076Z,51.40
2023-05-19T09:19:01.537Z,53.10
2023-05-19T09:21:33.204Z,51.50
2023-05-19T09:24:09.605Z,52.10
2023-05-19T09:26:39.297Z,54.00
2023-05-19T09:29:16.600Z,53.80
2023-05-19T09:31:51.808Z,52.70
2023-05-19T09:34:21.088Z,53.60
2023-05-19T09:36:54.806Z,53.90
2023-05-19T09:39:24.101Z,54.40
2023-05-19T09:41:58.456Z,52.10
2023-05-19T09:44:32.819Z,50.70
2023-05-19T09:47:00.149Z,52.70
2023-05-19T09:49:30.299Z,50.50
2023-05-19T09:51:59.481Z,50.20
2023-05-19T09:54:32.089Z,51.10
2023-05-19T09:57:03.780Z,50.50
2023-05-19T09:59:33.430Z,49.10
2023-05-19T10:02:02.319Z,52.00
2023-05-19T10:04:31.346Z,49.50
2023-05-19T10:07:05.458Z,50.50
2023-05-19T10:09:34.047Z,48.90
2023-05-19T10:12:02.486Z,46.80
2023-05-19T10:14:30.229Z,46.40
2023-05-19T10:17:00.736Z,48.00
2023-05-19T10:19:29.235Z,47.80
2023-05-19T10:21:56.983Z,49.30
2023-05-19T10:24:24.189Z,50.10
2023-05-19T10:26:58.033Z,52.70
2023-05-19T10:29:32.900Z,52.20
2023-05-19T10:32:10.409Z,53.00
2023-05-19T10:35:20.830Z,54.00
2023-05-19T10:38:12.837Z,54.10
2023-05-19T10:41:02.670Z,52.80
2023-05-19T10:44:20.722Z,55.00
2023-05-19T10:46:47.660Z,53.20
2023-05-19T10:49:24.361Z,54.50
2023-05-19T10:51:56.616Z,54.90
2023-05-19T10:54:47.643Z,54.30
2023-05-19T10:57:17.091Z,52.70
2023-05-19T10:59:47.308Z,53.20
2023-05-19T11:02:43.331Z,53.10
2023-05-19T11:05:18.344Z,54.60
2023-05-19T11:07:57.194Z,54.70
2023-05-19T11:10:25.240Z,54.90
2023-05-19T11:12:52.794Z,56.90
2023-05-19T11:15:27.639Z,56.00
2023-05-19T11:17:55.304Z,56.00
2023-05-19T11:20:28.144Z,56.40
2023-05-19T11:23:05.668Z,56.10
2023-05-19T11:25:44.686Z,57.40
2023-05-19T11:28:13.328Z,57.50
2023-05-19T11:30:45.432Z,57.60
2023-05-19T11:33:14.104Z,58.00
2023-05-19T11:35:42.862Z,56.90
2023-05-19T11:38:11.658Z,56.50
2023-05-19T11:40:39.484Z,57.80
2023-05-19T11:43:06.614Z,57.40
2023-05-19T11:45:35.068Z,58.40
2023-05-19T11:48:05.541Z,59.00
2023-05-19T11:50:33.343Z,55.10
2023-05-19T11:53:01.550Z,57.80
2023-05-19T11:55:29.613Z,57.90
2023-05-19T11:58:05.203Z,57.50
2023-05-19T12:00:40.085Z,57.40
2023-05-19T12:03:09.202Z,56.50
2023-05-19T12:05:43.506Z,55.10
2023-05-19T12:08:12.179Z,57.30
2023-05-19T12:10:40.711Z,57.40
2023-05-19T12:13:09.598Z,55.00
2023-05-19T12:15:37.521Z,56.10
2023-05-19T12:18:04.689Z,57.00
2023-05-19T12:20:32.893Z,57.90
2023-05-19T12:23:01.536Z,54.70
2023-05-19T12:25:31.079Z,55.10
2023-05-19T12:28:02.824Z,56.90
2023-05-19T12:30:33.021Z,56.70
2023-05-19T12:33:02.222Z,55.80
2023-05-19T12:35:36.176Z,56.00
2023-05-19T12:38:05.728Z,56.40
2023-05-19T12:40:35.522Z,56.90
2023-05-19T12:43:03.322Z,56.50
2023-05-19T12:45:35.534Z,55.20
2023-05-19T12:48:11.144Z,55.60
2023-05-19T12:50:38.717Z,55.70
2023-05-19T12:53:10.857Z,55.20
2023-05-19T12:55:45.682Z,56.10
2023-05-19T12:58:15.724Z,55.50
2023-05-19T13:00:47.358Z,53.80
2023-05-19T13:03:22.194Z,53.30
2023-05-19T13:05:51.610Z,55.60
2023-05-19T13:08:25.078Z,55.40
2023-05-19T13:10:52.036Z,55.80
2023-05-19T13:13:19.289Z,54.90
2023-05-19T13:15:50.806Z,56.00
2023-05-19T13:18:18.339Z,55.20
2023-05-19T13:20:47.190Z,54.70
2023-05-19T13:23:14.959Z,55.00
2023-05-19T13:25:42.812Z,55.50
2023-05-19T13:28:10.372Z,56.70
2023-05-19T13:30:40.585Z,56.70
2023-05-19T13:33:07.941Z,58.20
2023-05-19T13:35:38.396Z,58.00
2023-05-19T13:38:10.437Z,55.60
2023-05-19T13:40:38.563Z,54.80
2023-05-19T13:43:06.129Z,54.90
2023-05-19T13:45:33.301Z,55.80
2023-05-19T13:48:00.368Z,55.30
2023-05-19T13:50:27.440Z,55.50
2023-05-19T13:52:54.389Z,55.60
2023-05-19T13:55:21.583Z,56.10
2023-05-19T13:57:49.241Z,56.60
2023-05-19T14:00:18.337Z,56.90
2023-05-19T14:02:45.511Z,56.40
2023-05-19T14:05:12.958Z,56.60
2023-05-19T14:07:39.861Z,53.50
2023-05-19T14:10:07.699Z,54.80
2023-05-19T14:12:49.498Z,55.50
2023-05-19T14:15:23.732Z,55.00
2023-05-19T14:17:50.877Z,54.90
2023-05-19T14:20:17.853Z,55.10
2023-05-19T14:22:48.485Z,56.40
2023-05-19T14:25:15.478Z,56.30
2023-05-19T14:27:42.373Z,56.00
2023-05-19T14:30:09.987Z,56.60
2023-05-19T14:32:36.985Z,55.80
2023-05-19T14:35:04.948Z,55.90
2023-05-19T14:37:32.440Z,56.60
2023-05-19T14:39:59.732Z,55.30
2023-05-19T14:42:26.677Z,55.80
2023-05-19T14:44:53.654Z,56.80
2023-05-19T14:47:20.618Z,57.20
2023-05-19T14:49:47.648Z,57.20
2023-05-19T14:52:14.734Z,56.50
2023-05-19T14:54:41.665Z,56.60
2023-05-19T14:57:08.629Z,57.40
2023-05-19T14:59:39.201Z,58.00
2023-05-19T15:02:07.130Z,58.70
2023-05-19T15:04:33.986Z,58.30
2023-05-19T15:09:30.843Z,58.30
2023-05-19T15:11:58.089Z,58.30
2023-05-19T15:14:25.436Z,58.30
2023-05-19T15:16:53.335Z,59.20
2023-05-19T15:19:20.772Z,59.20
2023-05-19T15:21:49.924Z,59.30
2023-05-19T15:24:16.868Z,59.70
2023-05-19T15:26:43.790Z,59.90
2023-05-19T15:29:10.765Z,58.70
2023-05-19T15:31:38.458Z,59.90
2023-05-19T15:34:05.625Z,59.00
2023-05-19T15:36:32.576Z,58.50
2023-05-19T15:38:59.556Z,58.70
2023-05-19T15:41:26.775Z,57.50
2023-05-19T15:43:53.714Z,59.20
2023-05-19T15:46:20.781Z,58.10
2023-05-19T15:48:47.835Z,58.40
2023-05-19T15:51:14.892Z,58.80
2023-05-19T15:53:41.815Z,57.60
2023-05-19T15:56:08.787Z,58.60
2023-05-19T15:58:35.879Z,58.60
2023-05-19T16:01:03.596Z,58.60
2023-05-19T16:03:31.051Z,58.20
2023-05-19T16:05:58.199Z,58.60
2023-05-19T16:08:25.314Z,58.80
2023-05-19T16:10:53.603Z,58.90
2023-05-19T16:13:21.218Z,59.40
2023-05-19T16:15:48.720Z,59.20
2023-05-19T16:18:16.200Z,59.30
2023-05-19T16:20:44.082Z,60.40
2023-05-19T16:23:11.129Z,59.80
2023-05-19T16:25:38.020Z,59.90
2023-05-19T16:28:05.666Z,60.20
2023-05-19T16:30:32.885Z,61.20
2023-05-19T16:33:00.129Z,60.00
2023-05-19T16:35:29.945Z,60.40
2023-05-19T16:37:56.912Z,60.70
2023-05-19T16:40:24.055Z,61.20
2023-05-19T16:42:53.681Z,61.60
2023-05-19T16:45:20.832Z,62.20
2023-05-19T16:47:47.810Z,61.40
2023-05-19T16:50:14.862Z,60.90
2023-05-19T16:52:41.773Z,60.00
2023-05-19T16:55:09.219Z,60.40
2023-05-19T16:57:36.183Z,61.00
2023-05-19T17:00:03.704Z,61.10
2023-05-19T17:02:31.055Z,61.50
2023-05-19T17:04:58.015Z,61.40
2023-05-19T17:07:24.881Z,61.90
2023-05-19T17:09:53.525Z,61.80
2023-05-19T17:12:22.911Z,61.20
2023-05-19T17:14:52.073Z,61.90
2023-05-19T17:17:19.803Z,61.90
2023-05-19T17:19:49.289Z,62.60
2023-05-19T17:22:16.266Z,62.80
2023-05-19T17:24:43.201Z,63.40
2023-05-19T17:27:10.149Z,63.40
2023-05-19T17:29:37.168Z,63.60
2023-05-19T17:32:04.536Z,62.60
2023-05-19T17:34:31.440Z,63.30
2023-05-19T17:36:58.398Z,62.30
2023-05-19T17:39:25.281Z,61.90
2023-05-19T17:41:52.200Z,62.40
2023-05-19T17:44:19.085Z,63.00
2023-05-19T17:46:46.110Z,63.50
2023-05-19T17:49:13.884Z,64.00
2023-05-19T17:51:41.325Z,64.80
2023-05-19T17:54:08.735Z,64.50
2023-05-19T17:56:44.405Z,64.90
2023-05-19T17:59:11.752Z,65.00
2023-05-19T18:01:40.550Z,65.50
2023-05-19T18:04:08.261Z,65.90
2023-05-19T18:06:38.600Z,66.10
2023-05-19T18:09:09.771Z,66.30
2023-05-19T18:11:37.425Z,67.00
2023-05-19T18:14:04.343Z,67.50
2023-05-19T18:16:31.301Z,67.60
2023-05-19T18:18:58.439Z,68.10
2023-05-19T18:21:25.947Z,68.30
2023-05-19T18:23:52.808Z,68.10
2023-05-19T18:26:19.695Z,68.40
2023-05-19T18:28:46.597Z,69.00
2023-05-19T18:31:19.851Z,68.90
2023-05-19T18:33:47.667Z,69.10
2023-05-19T18:36:16.631Z,69.10
2023-05-19T18:38:43.774Z,69.40
2023-05-19T18:41:10.857Z,69.40
2023-05-19T18:43:38.749Z,70.10
2023-05-19T18:46:06.184Z,70.20
2023-05-19T18:48:33.391Z,69.80
2023-05-19T18:51:00.648Z,69.40
2023-05-19T18:53:27.578Z,69.20
2023-05-19T18:55:54.480Z,69.40
2023-05-19T18:58:21.628Z,69.70
2023-05-19T19:00:48.607Z,70.30
2023-05-19T19:03:15.974Z,70.20
2023-05-19T19:05:44.102Z,70.60
2023-05-19T19:08:11.116Z,71.30
2023-05-19T19:10:40.674Z,71.30
2023-05-19T19:13:07.784Z,71.30
2023-05-19T19:15:34.796Z,71.60
2023-05-19T19:18:02.204Z,72.30
2023-05-19T19:20:29.221Z,71.60
2023-05-19T19:22:56.841Z,71.60
2023-05-19T19:25:23.917Z,71.80
2023-05-19T19:27:51.263Z,73.20
2023-05-19T19:30:19.575Z,73.10
2023-05-19T19:32:46.542Z,73.80
2023-05-19T19:35:13.558Z,74.30
2023-05-19T19:37:40.432Z,74.30
2023-05-19T19:40:08.193Z,74.30
2023-05-19T19:42:35.425Z,75.50
2023-05-19T19:45:02.380Z,75.30
2023-05-19T19:47:29.709Z,75.10
2023-05-19T19:49:56.950Z,74.70
2023-05-19T19:52:23.921Z,74.60
2023-05-19T19:54:51.136Z,74.70
2023-05-19T19:57:18.423Z,75.00
2023-05-19T19:59:45.517Z,75.40
2023-05-19T20:02:12.483Z,76.40
2023-05-19T20:04:39.565Z,76.10
2023-05-19T20:07:06.556Z,76.30
2023-05-19T20:09:33.464Z,76.50
2023-05-19T20:12:00.360Z,77.00
2023-05-19T20:14:27.326Z,77.30
2023-05-19T20:16:54.260Z,77.40
2023-05-19T20:19:21.444Z,77.60
2023-05-19T20:21:48.349Z,77.90
2023-05-19T20:24:15.353Z,78.10
2023-05-19T20:26:42.269Z,79.20
2023-05-19T20:29:09.211Z,78.60
2023-05-19T20:31:36.109Z,78.90
2023-05-19T20:34:03.128Z,79.20
2023-05-19T20:36:30.059Z,81.00
2023-05-19T20:38:57.052Z,80.10
2023-05-19T20:41:24.010Z,80.50
2023-05-19T20:43:51.200Z,81.10
2023-05-19T20:46:18.118Z,81.80
2023-05-19T20:48:45.029Z,82.30
2023-05-19T20:51:11.922Z,82.20
2023-05-19T20:53:39.010Z,82.80
2023-05-19T20:56:07.341Z,84.20
2023-05-19T20:58:34.270Z,83.40
2023-05-19T21:01:01.196Z,83.90
2023-05-19T21:03:28.657Z,83.60
2023-05-19T21:05:55.934Z,84.10
2023-05-19T21:08:23.778Z,84.40
2023-05-19T21:10:51.369Z,84.60
2023-05-19T21:13:18.756Z,86.30
2023-05-19T21:15:45.772Z,86.40
2023-05-19T21:18:13.283Z,86.90
2023-05-19T21:20:40.941Z,86.70
2023-05-19T21:23:07.902Z,88.00
2023-05-19T21:25:34.833Z,89.00
2023-05-19T21:28:01.813Z,89.00
2023-05-19T21:30:28.778Z,89.50
2023-05-19T21:32:55.851Z,90.00
2023-05-19T21:35:25.686Z,90.20
2023-05-19T21:37:52.591Z,90.40
2023-05-19T21:40:20.172Z,90.40
2023-05-19T21:42:47.123Z,90.40
2023-05-19T21:45:14.062Z,90.50
2023-05-19T21:47:41.092Z,90.60
2023-05-19T21:50:08.886Z,91.00
2023-05-19T21:52:36.586Z,91.10
2023-05-19T21:55:03.696Z,91.20
2023-05-19T21:57:30.624Z,91.30
2023-05-19T21:59:57.617Z,91.60
2023-05-19T22:02:24.641Z,91.50
2023-05-19T22:04:51.761Z,91.60
2023-05-19T22:07:18.731Z,92.20
2023-05-19T22:09:48.212Z,92.20
2023-05-19T22:12:15.937Z,92.00
2023-05-19T22:14:42.841Z,92.30
2023-05-19T22:17:09.769Z,92.40
2023-05-19T22:19:36.914Z,92.50
2023-05-19T22:22:13.079Z,92.50
2023-05-19T22:24:41.598Z,92.60
2023-05-19T22:27:08.739Z,92.80
2023-05-19T22:29:38.491Z,92.90
2023-05-19T22:32:09.299Z,92.70
2023-05-19T22:34:36.244Z,92.80
2023-05-19T22:37:03.349Z,93.20
2023-05-19T22:39:30.200Z,93.00
2023-05-19T22:41:57.159Z,93.10
2023-05-19T22:44:24.058Z,93.20
2023-05-19T22:46:50.953Z,93.30
2023-05-19T22:49:17.867Z,93.60
2023-05-19T22:51:44.790Z,93.70
2023-05-19T22:54:11.728Z,93.80
2023-05-19T22:56:38.636Z,93.90
2023-05-19T22:59:05.881Z,93.90
2023-05-19T23:01:32.861Z,94.10
2023-05-19T23:03:59.827Z,94.30
2023-05-19T23:06:26.798Z,94.30
2023-05-19T23:09:02.535Z,94.40
2023-05-19T23:11:29.483Z,94.40
2023-05-19T23:13:56.787Z,94.60
2023-05-19T23:16:23.732Z,94.60
2023-05-19T23:18:50.594Z,94.70
2023-05-19T23:21:17.511Z,94.70
2023-05-19T23:23:44.402Z,94.80
2023-05-19T23:26:13.415Z,95.00
2023-05-19T23:28:42.757Z,95.20
2023-05-19T23:31:09.847Z,95.20
2023-05-19T23:33:36.798Z,95.30
2023-05-19T23:36:08.708Z,95.10
2023-05-19T23:38:36.832Z,95.30
2023-05-19T23:41:04.930Z,95.50
2023-05-19T23:43:32.474Z,95.50
2023-05-19T23:46:00.200Z,95.90
2023-05-19T23:48:31.230Z,95.70
2023-05-19T23:50:58.666Z,95.80
2023-05-19T23:53:25.924Z,95.90
2023-05-19T23:55:52.880Z,96.00
2023-05-19T23:58:19.793Z,96.00
